Aviation Digital Data Service (ADDS)

Output produced by METARs form (0202 UTC 27 February 2017)
found at http://www.aviationweather.gov/adds/metars/
 
KBOS 262320Z 2700/2806 29015G23KT P6SM FEW060 FEW220 
     FM270300 27011KT P6SM SKC 
     FM270700 24008KT P6SM SKC 
     FM271500 24012G22KT P6SM SKC 
     FM280000 22010KT P6SM FEW250